Etusivu
METAR-TAF:

METAR-TAF

Lentoasemat :

Lake Tahoe Airport

South Lake Tahoe, Kalifornia, Yhdysvallat

Leveyspiiri: 38-53-38N, Pituuspiiri: 119-59-43W, korkeus merenpinnasta: 1909 m

Tämänhetkinen sää

Tämä raportti tehtiin 50 minuuttia sitten, kello 22.53 UTC
tyyntä
Lämpötila -1°C
Kosteus 64%
Ilmanpaine 1019 hPa
Näkyvyys: 16.1 km
selkeää

METAR: KTVL 152253Z AUTO 00000KT 10SM CLR M01/M07 A3008 RMK AO2 SLP202 T10061067

Aika: 15:43 (23:43 UTC)

Sääennuste

Tämä raportti tehtiin 23 minuuttia sitten, kello 23.20 UTC
Ennuste voimassa 16. päivästä klo 00 UTC - 16. päivään klo 24 UTC
Tuuli 2 kn eri suunnista
Näkyvyys: 10 km
Muutamia pilviä 25000 ft:n korkeudessa
From 16. päivästä klo 1800 UTC
Tuuli 6 kn pohjoisesta/koillisesta
Näkyvyys: 10 km
Hajanaisia pilviä 25000 ft:n korkeudessa

TAF: KTVL 152320Z 1600/1624 VRB02KT P6SM FEW250 FM161800 03006KT P6SM SCT250

Säähavainnot ja -ennusteet yli 4000 lentoasemalta (METAR- ja TAF-raportit).

Käytössä olevat sääasemat on merkitty karttaan keltaisilla ja punaisilla pisteillä.

Aseta hiiri pisteen päälle nähdäksesi sääaseman nimen.

Klikkaa sitten nähdäksesi säähavainnot ja -ennusteet.

Kartan vaihtaminen: klikkaa mustalla rastilla varustettuja vihreitä pisteitä, niin voit zoomata sisään; viivalla varustettua vihreää pistettä, niin voit zoomata ulos tai vihreitä nuolia, niin pääset viereisille kartoille.


METAR-TAF: